sensor_id;sensor_type;location;lat;lon;timestamp;temperature;humidity
10644;DHT22;5370;50.132;8.626;2023-05-29T00:00:13;15.40;56.00
10644;DHT22;5370;50.132;8.626;2023-05-29T00:02:41;15.30;56.10
10644;DHT22;5370;50.132;8.626;2023-05-29T00:05:10;15.30;56.20
10644;DHT22;5370;50.132;8.626;2023-05-29T00:07:37;15.30;56.50
10644;DHT22;5370;50.132;8.626;2023-05-29T00:10:03;15.20;56.60
10644;DHT22;5370;50.132;8.626;2023-05-29T00:12:29;15.20;56.60
10644;DHT22;5370;50.132;8.626;2023-05-29T00:14:54;15.20;56.80
10644;DHT22;5370;50.132;8.626;2023-05-29T00:17:20;15.10;56.80
10644;DHT22;5370;50.132;8.626;2023-05-29T00:19:46;15.10;56.80
10644;DHT22;5370;50.132;8.626;2023-05-29T00:22:12;15.10;56.90
10644;DHT22;5370;50.132;8.626;2023-05-29T00:24:38;15.10;57.10
10644;DHT22;5370;50.132;8.626;2023-05-29T00:27:04;15.10;57.20
10644;DHT22;5370;50.132;8.626;2023-05-29T00:29:30;15.00;57.40
10644;DHT22;5370;50.132;8.626;2023-05-29T00:31:56;15.00;57.60
10644;DHT22;5370;50.132;8.626;2023-05-29T00:34:22;15.00;57.70
10644;DHT22;5370;50.132;8.626;2023-05-29T00:36:48;14.90;57.70
10644;DHT22;5370;50.132;8.626;2023-05-29T00:39:14;15.00;57.90
10644;DHT22;5370;50.132;8.626;2023-05-29T00:41:40;14.90;57.90
10644;DHT22;5370;50.132;8.626;2023-05-29T00:44:06;14.90;58.10
10644;DHT22;5370;50.132;8.626;2023-05-29T00:46:32;14.90;58.30
10644;DHT22;5370;50.132;8.626;2023-05-29T00:48:59;14.90;58.40
10644;DHT22;5370;50.132;8.626;2023-05-29T00:51:26;14.90;58.50
10644;DHT22;5370;50.132;8.626;2023-05-29T00:53:53;14.80;58.60
10644;DHT22;5370;50.132;8.626;2023-05-29T00:56:19;14.80;58.80
10644;DHT22;5370;50.132;8.626;2023-05-29T00:58:48;14.70;58.80
10644;DHT22;5370;50.132;8.626;2023-05-29T01:01:16;14.70;59.00
10644;DHT22;5370;50.132;8.626;2023-05-29T01:03:42;14.60;59.10
10644;DHT22;5370;50.132;8.626;2023-05-29T01:06:08;14.60;59.30
10644;DHT22;5370;50.132;8.626;2023-05-29T01:08:35;14.60;59.50
10644;DHT22;5370;50.132;8.626;2023-05-29T01:11:08;14.50;59.40
10644;DHT22;5370;50.132;8.626;2023-05-29T01:13:38;14.50;59.50
10644;DHT22;5370;50.132;8.626;2023-05-29T01:16:16;14.50;59.80
10644;DHT22;5370;50.132;8.626;2023-05-29T01:19:02;14.40;60.10
10644;DHT22;5370;50.132;8.626;2023-05-29T01:24:57;14.30;60.70
10644;DHT22;5370;50.132;8.626;2023-05-29T01:27:24;14.30;61.00
10644;DHT22;5370;50.132;8.626;2023-05-29T01:29:52;14.20;61.30
10644;DHT22;5370;50.132;8.626;2023-05-29T01:32:20;14.20;61.50
10644;DHT22;5370;50.132;8.626;2023-05-29T01:34:46;14.10;61.70
10644;DHT22;5370;50.132;8.626;2023-05-29T01:37:12;14.10;61.90
10644;DHT22;5370;50.132;8.626;2023-05-29T01:39:38;14.00;62.10
10644;DHT22;5370;50.132;8.626;2023-05-29T01:42:04;14.00;62.60
10644;DHT22;5370;50.132;8.626;2023-05-29T01:44:30;13.90;62.90
10644;DHT22;5370;50.132;8.626;2023-05-29T01:46:57;13.90;63.30
10644;DHT22;5370;50.132;8.626;2023-05-29T01:49:24;13.80;63.60
10644;DHT22;5370;50.132;8.626;2023-05-29T01:51:50;13.80;64.10
10644;DHT22;5370;50.132;8.626;2023-05-29T01:54:15;13.80;64.40
10644;DHT22;5370;50.132;8.626;2023-05-29T01:56:41;13.80;64.60
10644;DHT22;5370;50.132;8.626;2023-05-29T01:59:07;13.70;64.80
10644;DHT22;5370;50.132;8.626;2023-05-29T02:01:33;13.70;65.00
10644;DHT22;5370;50.132;8.626;2023-05-29T02:03:59;13.70;65.20
10644;DHT22;5370;50.132;8.626;2023-05-29T02:06:25;13.60;65.30
10644;DHT22;5370;50.132;8.626;2023-05-29T02:08:50;13.60;65.50
10644;DHT22;5370;50.132;8.626;2023-05-29T02:11:16;13.60;65.70
10644;DHT22;5370;50.132;8.626;2023-05-29T02:13:42;13.50;65.80
10644;DHT22;5370;50.132;8.626;2023-05-29T02:16:07;13.50;66.10
10644;DHT22;5370;50.132;8.626;2023-05-29T02:18:33;13.50;66.30
10644;DHT22;5370;50.132;8.626;2023-05-29T02:21:00;13.50;66.40
10644;DHT22;5370;50.132;8.626;2023-05-29T02:23:25;13.50;66.70
10644;DHT22;5370;50.132;8.626;2023-05-29T02:25:51;13.40;66.80
10644;DHT22;5370;50.132;8.626;2023-05-29T02:28:16;13.50;67.00
10644;DHT22;5370;50.132;8.626;2023-05-29T02:30:42;13.40;66.90
10644;DHT22;5370;50.132;8.626;2023-05-29T02:33:07;13.40;66.80
10644;DHT22;5370;50.132;8.626;2023-05-29T02:35:34;13.40;67.00
10644;DHT22;5370;50.132;8.626;2023-05-29T02:37:59;13.40;67.00
10644;DHT22;5370;50.132;8.626;2023-05-29T02:40:25;13.40;67.80
10644;DHT22;5370;50.132;8.626;2023-05-29T02:42:50;13.40;67.30
10644;DHT22;5370;50.132;8.626;2023-05-29T02:45:16;13.40;67.50
10644;DHT22;5370;50.132;8.626;2023-05-29T02:47:42;13.40;67.70
10644;DHT22;5370;50.132;8.626;2023-05-29T02:50:08;13.40;67.80
10644;DHT22;5370;50.132;8.626;2023-05-29T02:52:34;13.40;67.80
10644;DHT22;5370;50.132;8.626;2023-05-29T02:55:02;13.40;68.00
10644;DHT22;5370;50.132;8.626;2023-05-29T02:57:28;13.40;68.10
10644;DHT22;5370;50.132;8.626;2023-05-29T02:59:53;13.40;68.20
10644;DHT22;5370;50.132;8.626;2023-05-29T03:02:20;13.40;68.20
10644;DHT22;5370;50.132;8.626;2023-05-29T03:04:46;13.40;68.30
10644;DHT22;5370;50.132;8.626;2023-05-29T03:07:15;13.40;68.30
10644;DHT22;5370;50.132;8.626;2023-05-29T03:09:40;13.40;68.30
10644;DHT22;5370;50.132;8.626;2023-05-29T03:12:06;13.40;68.40
10644;DHT22;5370;50.132;8.626;2023-05-29T03:14:32;13.50;68.50
10644;DHT22;5370;50.132;8.626;2023-05-29T03:17:04;13.50;68.50
10644;DHT22;5370;50.132;8.626;2023-05-29T03:19:30;13.40;68.50
10644;DHT22;5370;50.132;8.626;2023-05-29T03:21:56;13.40;68.60
10644;DHT22;5370;50.132;8.626;2023-05-29T03:24:21;13.50;68.90
10644;DHT22;5370;50.132;8.626;2023-05-29T03:26:49;13.50;69.00
10644;DHT22;5370;50.132;8.626;2023-05-29T03:29:15;13.50;69.10
10644;DHT22;5370;50.132;8.626;2023-05-29T03:31:41;13.50;69.20
10644;DHT22;5370;50.132;8.626;2023-05-29T03:34:07;13.60;69.40
10644;DHT22;5370;50.132;8.626;2023-05-29T03:36:32;13.60;69.60
10644;DHT22;5370;50.132;8.626;2023-05-29T03:38:58;13.60;69.70
10644;DHT22;5370;50.132;8.626;2023-05-29T03:41:24;13.70;69.70
10644;DHT22;5370;50.132;8.626;2023-05-29T03:43:50;13.70;69.70
10644;DHT22;5370;50.132;8.626;2023-05-29T03:46:16;13.80;69.90
10644;DHT22;5370;50.132;8.626;2023-05-29T03:48:41;13.80;70.10
10644;DHT22;5370;50.132;8.626;2023-05-29T03:51:07;13.90;70.30
10644;DHT22;5370;50.132;8.626;2023-05-29T03:53:32;13.90;70.30
10644;DHT22;5370;50.132;8.626;2023-05-29T03:55:58;14.00;70.30
10644;DHT22;5370;50.132;8.626;2023-05-29T03:58:23;14.10;70.20
10644;DHT22;5370;50.132;8.626;2023-05-29T04:00:49;14.20;70.10
10644;DHT22;5370;50.132;8.626;2023-05-29T04:03:15;14.30;70.00
10644;DHT22;5370;50.132;8.626;2023-05-29T04:05:40;14.40;69.90
10644;DHT22;5370;50.132;8.626;2023-05-29T04:08:06;14.50;69.70
10644;DHT22;5370;50.132;8.626;2023-05-29T04:10:34;14.50;69.50
10644;DHT22;5370;50.132;8.626;2023-05-29T04:13:00;14.60;69.40
10644;DHT22;5370;50.132;8.626;2023-05-29T04:15:27;14.70;69.30
10644;DHT22;5370;50.132;8.626;2023-05-29T04:17:53;14.70;69.10
10644;DHT22;5370;50.132;8.626;2023-05-29T04:20:18;14.80;69.10
10644;DHT22;5370;50.132;8.626;2023-05-29T04:22:44;14.80;69.00
10644;DHT22;5370;50.132;8.626;2023-05-29T04:25:10;14.90;69.10
10644;DHT22;5370;50.132;8.626;2023-05-29T04:27:35;14.90;68.90
10644;DHT22;5370;50.132;8.626;2023-05-29T04:30:04;14.90;68.90
10644;DHT22;5370;50.132;8.626;2023-05-29T04:32:30;15.00;68.90
10644;DHT22;5370;50.132;8.626;2023-05-29T04:34:56;15.00;68.80
10644;DHT22;5370;50.132;8.626;2023-05-29T04:37:21;15.00;68.70
10644;DHT22;5370;50.132;8.626;2023-05-29T04:39:54;15.10;68.80
10644;DHT22;5370;50.132;8.626;2023-05-29T04:42:20;15.10;68.70
10644;DHT22;5370;50.132;8.626;2023-05-29T04:44:46;15.10;68.80
10644;DHT22;5370;50.132;8.626;2023-05-29T04:47:12;15.20;68.90
10644;DHT22;5370;50.132;8.626;2023-05-29T04:49:39;15.10;68.70
10644;DHT22;5370;50.132;8.626;2023-05-29T04:52:04;15.20;68.90
10644;DHT22;5370;50.132;8.626;2023-05-29T04:54:30;15.20;68.90
10644;DHT22;5370;50.132;8.626;2023-05-29T04:56:56;15.30;68.90
10644;DHT22;5370;50.132;8.626;2023-05-29T04:59:21;15.30;68.80
10644;DHT22;5370;50.132;8.626;2023-05-29T05:01:47;15.30;68.80
10644;DHT22;5370;50.132;8.626;2023-05-29T05:04:13;15.30;68.80
10644;DHT22;5370;50.132;8.626;2023-05-29T05:06:38;15.30;68.60
10644;DHT22;5370;50.132;8.626;2023-05-29T05:09:04;15.40;69.50
10644;DHT22;5370;50.132;8.626;2023-05-29T05:11:30;15.40;68.60
10644;DHT22;5370;50.132;8.626;2023-05-29T05:13:55;15.50;68.60
10644;DHT22;5370;50.132;8.626;2023-05-29T05:16:21;15.50;68.40
10644;DHT22;5370;50.132;8.626;2023-05-29T05:18:46;15.60;68.30
10644;DHT22;5370;50.132;8.626;2023-05-29T05:21:12;15.60;68.00
10644;DHT22;5370;50.132;8.626;2023-05-29T05:23:37;15.70;67.90
10644;DHT22;5370;50.132;8.626;2023-05-29T05:26:03;15.70;67.90
10644;DHT22;5370;50.132;8.626;2023-05-29T05:28:28;15.90;68.00
10644;DHT22;5370;50.132;8.626;2023-05-29T05:30:54;16.10;67.90
10644;DHT22;5370;50.132;8.626;2023-05-29T05:33:19;16.50;66.90
10644;DHT22;5370;50.132;8.626;2023-05-29T05:35:45;17.10;65.80
10644;DHT22;5370;50.132;8.626;2023-05-29T05:38:11;17.60;63.70
10644;DHT22;5370;50.132;8.626;2023-05-29T05:40:37;18.40;62.20
10644;DHT22;5370;50.132;8.626;2023-05-29T05:43:03;19.20;60.60
10644;DHT22;5370;50.132;8.626;2023-05-29T05:45:28;20.10;58.00
10644;DHT22;5370;50.132;8.626;2023-05-29T05:47:56;20.90;55.80
10644;DHT22;5370;50.132;8.626;2023-05-29T05:50:22;21.50;53.80
10644;DHT22;5370;50.132;8.626;2023-05-29T05:52:47;21.90;53.10
10644;DHT22;5370;50.132;8.626;2023-05-29T05:55:13;22.00;51.30
10644;DHT22;5370;50.132;8.626;2023-05-29T05:57:38;22.10;50.90
10644;DHT22;5370;50.132;8.626;2023-05-29T06:00:04;22.00;49.60
10644;DHT22;5370;50.132;8.626;2023-05-29T06:02:37;22.30;50.20
10644;DHT22;5370;50.132;8.626;2023-05-29T06:05:03;22.90;49.10
10644;DHT22;5370;50.132;8.626;2023-05-29T06:07:32;23.40;47.70
10644;DHT22;5370;50.132;8.626;2023-05-29T06:09:58;23.50;47.20
10644;DHT22;5370;50.132;8.626;2023-05-29T06:12:23;23.60;46.80
10644;DHT22;5370;50.132;8.626;2023-05-29T06:14:49;23.50;46.00
10644;DHT22;5370;50.132;8.626;2023-05-29T06:17:15;23.50;46.20
10644;DHT22;5370;50.132;8.626;2023-05-29T06:19:41;23.70;45.90
10644;DHT22;5370;50.132;8.626;2023-05-29T06:22:07;24.10;45.80
10644;DHT22;5370;50.132;8.626;2023-05-29T06:24:32;25.00;44.90
10644;DHT22;5370;50.132;8.626;2023-05-29T06:26:58;25.70;42.90
10644;DHT22;5370;50.132;8.626;2023-05-29T06:29:23;26.10;41.70
10644;DHT22;5370;50.132;8.626;2023-05-29T06:31:49;26.60;41.00
10644;DHT22;5370;50.132;8.626;2023-05-29T06:34:14;27.00;39.80
10644;DHT22;5370;50.132;8.626;2023-05-29T06:36:40;27.10;39.30
10644;DHT22;5370;50.132;8.626;2023-05-29T06:39:07;27.20;38.90
10644;DHT22;5370;50.132;8.626;2023-05-29T06:41:32;27.50;38.80
10644;DHT22;5370;50.132;8.626;2023-05-29T06:43:58;27.90;38.40
10644;DHT22;5370;50.132;8.626;2023-05-29T06:46:23;28.10;37.60
10644;DHT22;5370;50.132;8.626;2023-05-29T06:48:49;28.20;37.10
10644;DHT22;5370;50.132;8.626;2023-05-29T06:51:17;28.30;37.00
10644;DHT22;5370;50.132;8.626;2023-05-29T06:53:42;28.60;36.60
10644;DHT22;5370;50.132;8.626;2023-05-29T06:56:08;29.00;36.40
10644;DHT22;5370;50.132;8.626;2023-05-29T06:58:34;29.40;35.50
10644;DHT22;5370;50.132;8.626;2023-05-29T07:01:00;29.70;34.80
10644;DHT22;5370;50.132;8.626;2023-05-29T07:03:26;30.10;34.00
10644;DHT22;5370;50.132;8.626;2023-05-29T07:05:52;30.40;33.40
10644;DHT22;5370;50.132;8.626;2023-05-29T07:08:18;30.70;33.30
10644;DHT22;5370;50.132;8.626;2023-05-29T07:10:44;30.80;32.40
10644;DHT22;5370;50.132;8.626;2023-05-29T07:13:10;30.80;32.30
10644;DHT22;5370;50.132;8.626;2023-05-29T07:15:37;30.90;32.50
10644;DHT22;5370;50.132;8.626;2023-05-29T07:18:03;31.20;32.20
10644;DHT22;5370;50.132;8.626;2023-05-29T07:20:28;31.40;31.80
10644;DHT22;5370;50.132;8.626;2023-05-29T07:22:54;31.90;31.10
10644;DHT22;5370;50.132;8.626;2023-05-29T07:25:20;32.10;30.20
10644;DHT22;5370;50.132;8.626;2023-05-29T07:27:45;32.50;30.20
10644;DHT22;5370;50.132;8.626;2023-05-29T07:30:11;33.50;29.80
10644;DHT22;5370;50.132;8.626;2023-05-29T07:32:37;34.30;28.60
10644;DHT22;5370;50.132;8.626;2023-05-29T07:35:03;34.60;27.80
10644;DHT22;5370;50.132;8.626;2023-05-29T07:37:28;35.00;27.70
10644;DHT22;5370;50.132;8.626;2023-05-29T07:39:55;35.50;27.00
10644;DHT22;5370;50.132;8.626;2023-05-29T07:42:21;35.90;26.30
10644;DHT22;5370;50.132;8.626;2023-05-29T07:44:46;35.90;25.90
10644;DHT22;5370;50.132;8.626;2023-05-29T07:47:13;36.00;25.40
10644;DHT22;5370;50.132;8.626;2023-05-29T07:49:39;35.80;25.50
10644;DHT22;5370;50.132;8.626;2023-05-29T07:52:04;35.40;25.70
10644;DHT22;5370;50.132;8.626;2023-05-29T07:54:31;35.20;25.80
10644;DHT22;5370;50.132;8.626;2023-05-29T07:57:01;35.30;25.80
10644;DHT22;5370;50.132;8.626;2023-05-29T07:59:28;34.90;26.00
10644;DHT22;5370;50.132;8.626;2023-05-29T08:01:54;34.50;26.50
10644;DHT22;5370;50.132;8.626;2023-05-29T08:04:24;34.20;26.80
10644;DHT22;5370;50.132;8.626;2023-05-29T08:06:50;33.90;27.00
10644;DHT22;5370;50.132;8.626;2023-05-29T08:09:16;33.90;27.00
10644;DHT22;5370;50.132;8.626;2023-05-29T08:11:42;34.40;26.70
10644;DHT22;5370;50.132;8.626;2023-05-29T08:14:10;35.10;26.30
10644;DHT22;5370;50.132;8.626;2023-05-29T08:16:36;35.80;25.80
10644;DHT22;5370;50.132;8.626;2023-05-29T08:19:02;36.00;25.10
10644;DHT22;5370;50.132;8.626;2023-05-29T08:21:27;36.20;25.10
10644;DHT22;5370;50.132;8.626;2023-05-29T08:23:53;36.40;24.60
10644;DHT22;5370;50.132;8.626;2023-05-29T08:26:18;36.30;24.70
10644;DHT22;5370;50.132;8.626;2023-05-29T08:28:44;36.20;24.80
10644;DHT22;5370;50.132;8.626;2023-05-29T08:31:09;36.00;25.10
10644;DHT22;5370;50.132;8.626;2023-05-29T08:33:35;36.20;24.80
10644;DHT22;5370;50.132;8.626;2023-05-29T08:36:02;36.10;24.60
10644;DHT22;5370;50.132;8.626;2023-05-29T08:38:27;35.60;24.60
10644;DHT22;5370;50.132;8.626;2023-05-29T08:40:54;35.00;25.30
10644;DHT22;5370;50.132;8.626;2023-05-29T08:43:22;34.00;25.90
10644;DHT22;5370;50.132;8.626;2023-05-29T08:45:53;32.70;26.80
10644;DHT22;5370;50.132;8.626;2023-05-29T08:48:19;31.60;28.00
10644;DHT22;5370;50.132;8.626;2023-05-29T08:50:48;30.60;29.40
10644;DHT22;5370;50.132;8.626;2023-05-29T08:53:15;29.60;30.40
10644;DHT22;5370;50.132;8.626;2023-05-29T08:55:42;28.50;31.80
10644;DHT22;5370;50.132;8.626;2023-05-29T08:58:08;27.40;33.40
10644;DHT22;5370;50.132;8.626;2023-05-29T09:00:35;26.60;35.50
10644;DHT22;5370;50.132;8.626;2023-05-29T09:03:02;25.90;36.70
10644;DHT22;5370;50.132;8.626;2023-05-29T09:05:28;25.30;38.10
10644;DHT22;5370;50.132;8.626;2023-05-29T09:07:55;24.70;39.10
10644;DHT22;5370;50.132;8.626;2023-05-29T09:10:21;24.30;39.70
10644;DHT22;5370;50.132;8.626;2023-05-29T09:12:48;24.00;40.30
10644;DHT22;5370;50.132;8.626;2023-05-29T09:15:23;23.80;41.00
10644;DHT22;5370;50.132;8.626;2023-05-29T09:17:56;23.60;41.10
10644;DHT22;5370;50.132;8.626;2023-05-29T09:20:25;23.40;41.40
10644;DHT22;5370;50.132;8.626;2023-05-29T09:22:54;23.20;41.60
10644;DHT22;5370;50.132;8.626;2023-05-29T09:25:22;23.10;42.10
10644;DHT22;5370;50.132;8.626;2023-05-29T09:30:40;23.10;42.80
10644;DHT22;5370;50.132;8.626;2023-05-29T09:33:07;23.00;42.30
10644;DHT22;5370;50.132;8.626;2023-05-29T09:35:47;23.00;42.50
10644;DHT22;5370;50.132;8.626;2023-05-29T09:38:18;22.90;42.50
10644;DHT22;5370;50.132;8.626;2023-05-29T09:40:44;23.00;42.80
10644;DHT22;5370;50.132;8.626;2023-05-29T09:43:14;23.10;43.20
10644;DHT22;5370;50.132;8.626;2023-05-29T09:45:47;23.10;43.10
10644;DHT22;5370;50.132;8.626;2023-05-29T09:48:18;23.20;43.30
10644;DHT22;5370;50.132;8.626;2023-05-29T09:50:44;23.20;43.10
10644;DHT22;5370;50.132;8.626;2023-05-29T09:53:20;23.30;42.80
10644;DHT22;5370;50.132;8.626;2023-05-29T09:55:48;23.30;42.70
10644;DHT22;5370;50.132;8.626;2023-05-29T09:58:14;23.30;42.80
10644;DHT22;5370;50.132;8.626;2023-05-29T10:00:41;23.30;42.90
10644;DHT22;5370;50.132;8.626;2023-05-29T10:03:07;23.40;42.60
10644;DHT22;5370;50.132;8.626;2023-05-29T10:05:32;23.50;42.20
10644;DHT22;5370;50.132;8.626;2023-05-29T10:07:59;23.60;41.80
10644;DHT22;5370;50.132;8.626;2023-05-29T10:10:27;23.70;41.60
10644;DHT22;5370;50.132;8.626;2023-05-29T10:12:55;23.70;41.30
10644;DHT22;5370;50.132;8.626;2023-05-29T10:15:23;23.80;41.10
10644;DHT22;5370;50.132;8.626;2023-05-29T10:18:03;23.90;41.70
10644;DHT22;5370;50.132;8.626;2023-05-29T10:20:31;24.00;40.80
10644;DHT22;5370;50.132;8.626;2023-05-29T10:23:00;24.10;39.90
10644;DHT22;5370;50.132;8.626;2023-05-29T10:25:29;24.10;39.30
10644;DHT22;5370;50.132;8.626;2023-05-29T10:27:56;24.20;39.50
10644;DHT22;5370;50.132;8.626;2023-05-29T10:30:39;24.30;39.50
10644;DHT22;5370;50.132;8.626;2023-05-29T10:33:35;24.40;39.40
10644;DHT22;5370;50.132;8.626;2023-05-29T10:36:18;24.50;39.50
10644;DHT22;5370;50.132;8.626;2023-05-29T10:38:47;24.50;39.50
10644;DHT22;5370;50.132;8.626;2023-05-29T10:43:53;24.50;39.50
10644;DHT22;5370;50.132;8.626;2023-05-29T10:46:19;24.60;39.70
10644;DHT22;5370;50.132;8.626;2023-05-29T10:48:44;24.60;39.70
10644;DHT22;5370;50.132;8.626;2023-05-29T10:51:28;24.60;39.50
10644;DHT22;5370;50.132;8.626;2023-05-29T10:53:54;24.60;39.20
10644;DHT22;5370;50.132;8.626;2023-05-29T10:56:27;24.60;39.10
10644;DHT22;5370;50.132;8.626;2023-05-29T10:58:55;24.60;38.40
10644;DHT22;5370;50.132;8.626;2023-05-29T11:01:22;24.70;38.50
10644;DHT22;5370;50.132;8.626;2023-05-29T11:03:48;24.70;38.80
10644;DHT22;5370;50.132;8.626;2023-05-29T11:06:21;24.80;38.90
10644;DHT22;5370;50.132;8.626;2023-05-29T11:08:58;24.90;39.30
10644;DHT22;5370;50.132;8.626;2023-05-29T11:13:53;25.00;39.00
10644;DHT22;5370;50.132;8.626;2023-05-29T11:19:03;25.00;38.80
10644;DHT22;5370;50.132;8.626;2023-05-29T11:21:53;25.00;39.00
10644;DHT22;5370;50.132;8.626;2023-05-29T11:24:26;25.10;38.90
10644;DHT22;5370;50.132;8.626;2023-05-29T11:26:53;24.90;38.40
10644;DHT22;5370;50.132;8.626;2023-05-29T11:31:54;24.90;38.70
10644;DHT22;5370;50.132;8.626;2023-05-29T11:34:22;24.90;38.10
10644;DHT22;5370;50.132;8.626;2023-05-29T11:36:48;24.90;38.40
10644;DHT22;5370;50.132;8.626;2023-05-29T11:39:16;25.00;38.30
10644;DHT22;5370;50.132;8.626;2023-05-29T11:41:41;25.00;37.70
10644;DHT22;5370;50.132;8.626;2023-05-29T11:44:07;25.10;37.70
10644;DHT22;5370;50.132;8.626;2023-05-29T11:46:34;25.10;38.20
10644;DHT22;5370;50.132;8.626;2023-05-29T11:48:59;25.20;38.00
10644;DHT22;5370;50.132;8.626;2023-05-29T11:51:25;25.40;37.90
10644;DHT22;5370;50.132;8.626;2023-05-29T11:53:51;25.50;37.10
10644;DHT22;5370;50.132;8.626;2023-05-29T11:56:23;25.50;37.00
10644;DHT22;5370;50.132;8.626;2023-05-29T11:58:50;25.50;37.40
10644;DHT22;5370;50.132;8.626;2023-05-29T12:01:16;25.50;36.80
10644;DHT22;5370;50.132;8.626;2023-05-29T12:03:44;25.60;36.90
10644;DHT22;5370;50.132;8.626;2023-05-29T12:06:10;25.60;36.10
10644;DHT22;5370;50.132;8.626;2023-05-29T12:08:36;25.70;36.20
10644;DHT22;5370;50.132;8.626;2023-05-29T12:11:02;25.70;36.40
10644;DHT22;5370;50.132;8.626;2023-05-29T12:13:28;25.90;36.30
10644;DHT22;5370;50.132;8.626;2023-05-29T12:16:03;26.00;34.70
10644;DHT22;5370;50.132;8.626;2023-05-29T12:18:29;26.10;33.90
10644;DHT22;5370;50.132;8.626;2023-05-29T12:21:02;26.20;34.00
10644;DHT22;5370;50.132;8.626;2023-05-29T12:23:28;26.20;32.70
10644;DHT22;5370;50.132;8.626;2023-05-29T12:25:55;26.20;33.10
10644;DHT22;5370;50.132;8.626;2023-05-29T12:28:21;26.10;34.40
10644;DHT22;5370;50.132;8.626;2023-05-29T12:30:48;26.20;35.00
10644;DHT22;5370;50.132;8.626;2023-05-29T12:33:31;26.30;34.70
10644;DHT22;5370;50.132;8.626;2023-05-29T12:36:08;26.40;34.70
10644;DHT22;5370;50.132;8.626;2023-05-29T12:38:55;26.50;34.20
10644;DHT22;5370;50.132;8.626;2023-05-29T12:41:33;26.50;32.80
10644;DHT22;5370;50.132;8.626;2023-05-29T12:44:02;26.40;33.00
10644;DHT22;5370;50.132;8.626;2023-05-29T12:46:41;26.40;33.20
10644;DHT22;5370;50.132;8.626;2023-05-29T12:49:15;26.40;33.80
10644;DHT22;5370;50.132;8.626;2023-05-29T12:51:42;26.50;34.10
10644;DHT22;5370;50.132;8.626;2023-05-29T12:54:12;26.50;34.60
10644;DHT22;5370;50.132;8.626;2023-05-29T12:56:39;26.60;35.10
10644;DHT22;5370;50.132;8.626;2023-05-29T12:59:08;26.60;34.90
10644;DHT22;5370;50.132;8.626;2023-05-29T13:01:34;26.70;34.60
10644;DHT22;5370;50.132;8.626;2023-05-29T13:04:00;26.70;34.50
10644;DHT22;5370;50.132;8.626;2023-05-29T13:06:25;26.80;34.90
10644;DHT22;5370;50.132;8.626;2023-05-29T13:08:51;26.70;34.30
10644;DHT22;5370;50.132;8.626;2023-05-29T13:11:17;26.70;34.40
10644;DHT22;5370;50.132;8.626;2023-05-29T13:13:42;26.70;34.10
10644;DHT22;5370;50.132;8.626;2023-05-29T13:16:08;26.70;35.10
10644;DHT22;5370;50.132;8.626;2023-05-29T13:18:33;26.70;35.00
10644;DHT22;5370;50.132;8.626;2023-05-29T13:20:59;26.70;35.00
10644;DHT22;5370;50.132;8.626;2023-05-29T13:23:25;26.60;35.60
10644;DHT22;5370;50.132;8.626;2023-05-29T13:25:50;26.60;35.40
10644;DHT22;5370;50.132;8.626;2023-05-29T13:28:16;26.60;34.90
10644;DHT22;5370;50.132;8.626;2023-05-29T13:30:41;26.60;35.40
10644;DHT22;5370;50.132;8.626;2023-05-29T13:33:07;26.60;35.10
10644;DHT22;5370;50.132;8.626;2023-05-29T13:35:33;26.60;34.90
10644;DHT22;5370;50.132;8.626;2023-05-29T13:37:58;26.60;35.00
10644;DHT22;5370;50.132;8.626;2023-05-29T13:40:24;26.50;35.40
10644;DHT22;5370;50.132;8.626;2023-05-29T13:42:50;26.50;35.40
10644;DHT22;5370;50.132;8.626;2023-05-29T13:45:15;26.50;35.70
10644;DHT22;5370;50.132;8.626;2023-05-29T13:47:41;26.60;35.50
10644;DHT22;5370;50.132;8.626;2023-05-29T13:50:07;26.70;35.40
10644;DHT22;5370;50.132;8.626;2023-05-29T13:52:33;26.70;35.70
10644;DHT22;5370;50.132;8.626;2023-05-29T13:54:59;26.80;35.50
10644;DHT22;5370;50.132;8.626;2023-05-29T13:57:29;26.80;35.50
10644;DHT22;5370;50.132;8.626;2023-05-29T13:59:56;26.80;35.30
10644;DHT22;5370;50.132;8.626;2023-05-29T14:02:21;26.80;35.40
10644;DHT22;5370;50.132;8.626;2023-05-29T14:04:48;26.80;35.90
10644;DHT22;5370;50.132;8.626;2023-05-29T14:07:13;26.80;35.70
10644;DHT22;5370;50.132;8.626;2023-05-29T14:09:39;26.80;35.90
10644;DHT22;5370;50.132;8.626;2023-05-29T14:12:05;26.90;36.20
10644;DHT22;5370;50.132;8.626;2023-05-29T14:14:32;26.90;35.90
10644;DHT22;5370;50.132;8.626;2023-05-29T14:16:58;27.00;35.90
10644;DHT22;5370;50.132;8.626;2023-05-29T14:19:24;27.00;35.60
10644;DHT22;5370;50.132;8.626;2023-05-29T14:21:50;27.00;35.30
10644;DHT22;5370;50.132;8.626;2023-05-29T14:24:15;27.00;35.30
10644;DHT22;5370;50.132;8.626;2023-05-29T14:26:43;26.80;35.40
10644;DHT22;5370;50.132;8.626;2023-05-29T14:29:10;26.80;35.60
10644;DHT22;5370;50.132;8.626;2023-05-29T14:31:36;26.80;35.80
10644;DHT22;5370;50.132;8.626;2023-05-29T14:34:01;26.80;35.80
10644;DHT22;5370;50.132;8.626;2023-05-29T14:36:27;26.70;36.20
10644;DHT22;5370;50.132;8.626;2023-05-29T14:38:53;26.60;36.30
10644;DHT22;5370;50.132;8.626;2023-05-29T14:41:18;26.60;36.80
10644;DHT22;5370;50.132;8.626;2023-05-29T14:43:44;26.60;37.20
10644;DHT22;5370;50.132;8.626;2023-05-29T14:46:09;26.50;36.90
10644;DHT22;5370;50.132;8.626;2023-05-29T14:48:35;26.40;37.30
10644;DHT22;5370;50.132;8.626;2023-05-29T14:51:01;26.20;37.70
10644;DHT22;5370;50.132;8.626;2023-05-29T14:53:27;26.20;37.80
10644;DHT22;5370;50.132;8.626;2023-05-29T14:55:53;26.20;37.90
10644;DHT22;5370;50.132;8.626;2023-05-29T14:58:19;26.10;38.10
10644;DHT22;5370;50.132;8.626;2023-05-29T15:00:44;26.20;38.30
10644;DHT22;5370;50.132;8.626;2023-05-29T15:03:10;26.30;38.30
10644;DHT22;5370;50.132;8.626;2023-05-29T15:05:36;26.40;37.90
10644;DHT22;5370;50.132;8.626;2023-05-29T15:08:02;26.40;37.30
10644;DHT22;5370;50.132;8.626;2023-05-29T15:10:27;26.40;37.30
10644;DHT22;5370;50.132;8.626;2023-05-29T15:12:53;26.40;37.70
10644;DHT22;5370;50.132;8.626;2023-05-29T15:15:25;26.30;37.80
10644;DHT22;5370;50.132;8.626;2023-05-29T15:17:52;26.20;37.40
10644;DHT22;5370;50.132;8.626;2023-05-29T15:20:22;26.10;37.60
10644;DHT22;5370;50.132;8.626;2023-05-29T15:22:48;26.00;37.90
10644;DHT22;5370;50.132;8.626;2023-05-29T15:25:14;25.90;38.20
10644;DHT22;5370;50.132;8.626;2023-05-29T15:27:40;25.90;38.20
10644;DHT22;5370;50.132;8.626;2023-05-29T15:30:17;25.90;37.90
10644;DHT22;5370;50.132;8.626;2023-05-29T15:32:45;25.80;38.00
10644;DHT22;5370;50.132;8.626;2023-05-29T15:35:12;25.70;38.30
10644;DHT22;5370;50.132;8.626;2023-05-29T15:37:39;25.70;38.50
10644;DHT22;5370;50.132;8.626;2023-05-29T15:40:06;25.60;38.50
10644;DHT22;5370;50.132;8.626;2023-05-29T15:42:32;25.50;38.90
10644;DHT22;5370;50.132;8.626;2023-05-29T15:44:58;25.50;38.70
10644;DHT22;5370;50.132;8.626;2023-05-29T15:47:23;25.40;39.10
10644;DHT22;5370;50.132;8.626;2023-05-29T15:49:50;25.30;38.90
10644;DHT22;5370;50.132;8.626;2023-05-29T15:52:15;25.20;39.00
10644;DHT22;5370;50.132;8.626;2023-05-29T15:54:41;25.20;39.30
10644;DHT22;5370;50.132;8.626;2023-05-29T15:57:06;25.20;39.60
10644;DHT22;5370;50.132;8.626;2023-05-29T15:59:32;25.30;39.70